Time;durP1;ratioP1;P1;durP2;ratioP2;P2;SDS_P1;SDS_P2;PMS_P1;PMS_P2;Temp;Humidity;BMP_temperature;BMP_pressure;BME280_temperature;BME280_humidity;BME280_pressure;Samples;Min_cycle;Max_cycle;Signal;HPM_P1;HPM_P2
2024/03/25 00:01:54;;;;;;;2.07;1.87;;;;;;;6.13;64.83;95484.25;4949113;28;20179;-70
2024/03/25 00:04:21;;;;;;;4.67;2.40;;;;;;;6.11;65.15;95492.13;4949046;29;20229;-68
2024/03/25 00:06:47;;;;;;;3.00;1.80;;;;;;;6.06;65.39;95488.03;4948533;29;20201;-69
2024/03/25 00:09:14;;;;;;;2.83;2.60;;;;;;;6.11;65.15;95484.31;4948548;29;20465;-69
2024/03/25 00:11:40;;;;;;;2.47;1.93;;;;;;;6.22;65.03;95486.50;4948190;28;20174;-69
2024/03/25 00:14:06;;;;;;;3.40;2.40;;;;;;;6.23;65.11;95490.78;4948955;28;20846;-69
2024/03/25 00:16:31;;;;;;;2.80;1.70;;;;;;;6.06;65.41;95488.88;4948703;29;20414;-69
2024/03/25 00:18:56;;;;;;;2.87;2.27;;;;;;;6.26;64.71;95489.78;4948497;29;20197;-69
2024/03/25 00:21:22;;;;;;;3.00;1.90;;;;;;;6.21;64.91;95496.97;4948816;29;20204;-68
2024/03/25 00:23:47;;;;;;;7.47;2.50;;;;;;;6.24;65.28;95496.84;4948641;29;20174;-69
2024/03/25 00:26:12;;;;;;;5.13;2.60;;;;;;;6.31;64.66;95496.53;4948557;29;20273;-70
2024/03/25 00:28:38;;;;;;;3.57;2.17;;;;;;;6.27;64.94;95489.75;4948367;29;20198;-69
2024/03/25 00:31:04;;;;;;;3.80;2.60;;;;;;;6.23;65.08;95489.94;4948505;28;20205;-70
2024/03/25 00:33:29;;;;;;;4.33;2.10;;;;;;;6.13;65.51;95492.91;4948370;28;20178;-68
2024/03/25 00:35:54;;;;;;;2.40;1.97;;;;;;;6.16;65.18;95489.34;4948207;29;20179;-69
2024/03/25 00:38:20;;;;;;;3.10;2.37;;;;;;;5.98;66.02;95488.34;4947957;29;20296;-69
2024/03/25 00:40:45;;;;;;;3.13;1.90;;;;;;;6.12;65.38;95488.63;4948292;28;20257;-70
2024/03/25 00:43:11;;;;;;;4.50;2.27;;;;;;;6.06;65.71;95488.88;4948091;29;20204;-70
2024/03/25 00:45:36;;;;;;;5.90;4.10;;;;;;;6.15;65.29;95485.88;4948368;28;20252;-68
2024/03/25 00:48:02;;;;;;;5.70;2.50;;;;;;;6.08;65.54;95492.25;4948687;29;20621;-68
2024/03/25 00:50:27;;;;;;;2.27;1.90;;;;;;;6.13;65.36;95489.47;4949154;29;20178;-70
2024/03/25 00:52:53;;;;;;;2.50;2.10;;;;;;;6.18;65.46;95497.94;4949387;28;20174;-69
2024/03/25 00:55:19;;;;;;;6.03;2.50;;;;;;;6.06;65.96;95480.22;4950488;29;20182;-70
2024/03/25 00:57:44;;;;;;;2.60;2.10;;;;;;;6.06;65.42;95488.88;4952508;28;20170;-70
2024/03/25 01:00:10;;;;;;;4.03;2.50;;;;;;;6.21;65.24;95482.16;4952174;29;20198;-68
2024/03/25 01:02:36;;;;;;;4.20;2.50;;;;;;;6.00;65.59;95488.25;4952098;29;20192;-69
2024/03/25 01:05:02;;;;;;;3.83;2.20;;;;;;;5.96;66.02;95477.13;4950300;29;20422;-70
2024/03/25 01:07:27;;;;;;;3.13;2.20;;;;;;;6.10;65.62;95482.63;4951013;29;20186;-70
2024/03/25 01:09:53;;;;;;;3.20;2.23;;;;;;;6.13;64.99;95484.25;4948414;29;20778;-67
2024/03/25 01:12:18;;;;;;;2.40;2.00;;;;;;;5.94;65.72;95473.75;4947810;29;20175;-68
2024/03/25 01:14:44;;;;;;;3.33;2.10;;;;;;;5.88;65.91;95476.56;4947591;29;20225;-69
2024/03/25 01:17:09;;;;;;;5.50;2.53;;;;;;;5.92;65.98;95480.72;4947810;29;20170;-69
2024/03/25 01:19:34;;;;;;;2.83;2.53;;;;;;;5.83;66.27;95479.34;4948287;28;20666;-69
2024/03/25 01:22:00;;;;;;;3.20;2.10;;;;;;;5.79;66.17;95482.13;4948187;28;20189;-68
2024/03/25 01:24:25;;;;;;;5.40;2.90;;;;;;;5.79;66.04;95480.38;4951958;28;20185;-67
2024/03/25 01:26:51;;;;;;;4.50;2.10;;;;;;;5.81;66.23;95475.97;4951923;29;20202;-69
2024/03/25 01:29:17;;;;;;;3.20;2.50;;;;;;;5.99;65.39;95470.94;4957581;29;20288;-69
2024/03/25 01:31:42;;;;;;;4.50;1.77;;;;;;;5.78;65.98;95467.44;4950404;29;20182;-69
2024/03/25 01:34:07;;;;;;;3.03;2.73;;;;;;;5.78;66.23;95459.63;4951334;29;20497;-68
2024/03/25 01:36:34;;;;;;;3.70;2.43;;;;;;;5.89;66.25;95470.44;4949934;29;20178;-69
2024/03/25 01:38:59;;;;;;;2.67;2.27;;;;;;;5.79;66.52;95463.91;4949762;28;20244;-68
2024/03/25 01:41:25;;;;;;;2.70;2.40;;;;;;;5.81;66.64;95469.91;4951372;29;20418;-69
2024/03/25 01:43:50;;;;;;;4.90;2.73;;;;;;;5.72;67.08;95466.75;4951472;29;20178;-68
2024/03/25 01:46:20;;;;;;;3.30;2.50;;;;;;;5.68;67.40;95453.94;4951089;28;20210;-68
2024/03/25 01:48:48;;;;;;;5.10;2.77;;;;;;;5.56;66.97;95452.66;4950983;29;20202;-68
2024/03/25 01:51:16;;;;;;;3.90;2.40;;;;;;;5.56;67.35;95454.44;4950961;29;20418;-68
2024/03/25 01:53:42;;;;;;;4.90;2.47;;;;;;;5.55;67.50;95464.00;4951384;28;20450;-69
2024/03/25 01:56:09;;;;;;;4.77;2.70;;;;;;;5.53;67.62;95458.00;4950947;29;20417;-68
2024/03/25 01:58:36;;;;;;;3.17;2.20;;;;;;;5.62;67.16;95451.56;4950642;28;20805;-68
2024/03/25 02:01:03;;;;;;;4.60;2.90;;;;;;;5.74;66.52;95451.09;4950728;28;20425;-68
2024/03/25 02:03:29;;;;;;;3.07;2.27;;;;;;;5.57;67.45;95451.75;4950510;28;20520;-68
2024/03/25 02:06:03;;;;;;;4.47;2.80;;;;;;;5.61;67.24;95455.94;4950719;28;20879;-68
2024/03/25 02:08:29;;;;;;;5.50;3.73;;;;;;;5.80;66.30;95460.41;4950613;28;20433;-68
2024/03/25 02:10:57;;;;;;;3.77;2.90;;;;;;;5.77;66.54;95455.34;4950694;28;20413;-69
2024/03/25 02:13:24;;;;;;;2.70;2.50;;;;;;;5.80;66.16;95453.44;4951989;28;20189;-69
2024/03/25 02:15:51;;;;;;;5.73;3.30;;;;;;;5.72;66.84;95458.97;4962260;28;20421;-67
2024/03/25 02:18:17;;;;;;;4.07;2.87;;;;;;;5.69;67.26;95464.28;4960697;28;20430;-69
2024/03/25 02:20:43;;;;;;;3.57;2.60;;;;;;;5.65;67.26;95460.09;4950785;28;20929;-69
2024/03/25 02:23:10;;;;;;;4.63;2.47;;;;;;;5.55;67.78;95448.38;4950727;28;20430;-68
2024/03/25 02:25:38;;;;;;;3.57;2.57;;;;;;;5.60;67.35;95461.19;4950572;28;20613;-69
2024/03/25 02:28:04;;;;;;;4.20;2.20;;;;;;;5.52;67.73;95464.09;4951223;28;20743;-68
2024/03/25 02:30:29;;;;;;;4.53;2.67;;;;;;;5.43;68.10;95459.25;4950832;28;20449;-67
2024/03/25 02:32:54;;;;;;;4.50;2.60;;;;;;;5.52;67.62;95462.31;4948773;28;20182;-67
2024/03/25 02:35:22;;;;;;;5.43;3.23;;;;;;;5.54;67.84;95467.47;4949804;28;20360;-70
2024/03/25 02:37:50;;;;;;;6.70;2.80;;;;;;;5.46;67.67;95467.78;4950214;29;20218;-68
2024/03/25 02:40:15;;;;;;;4.53;2.57;;;;;;;5.46;68.16;95467.78;4949687;28;20433;-68
2024/03/25 02:42:41;;;;;;;4.20;2.80;;;;;;;5.38;67.86;95467.22;4948350;29;20528;-69
2024/03/25 02:45:07;;;;;;;6.33;3.00;;;;;;;5.49;68.24;95466.81;4950203;28;20186;-68
2024/03/25 02:47:32;;;;;;;3.10;2.73;;;;;;;5.61;67.65;95471.53;4950417;28;20634;-69
2024/03/25 02:49:57;;;;;;;4.73;2.80;;;;;;;5.61;67.53;95479.34;4950242;28;20839;-70
2024/03/25 02:52:23;;;;;;;4.07;2.87;;;;;;;5.45;68.06;95476.50;4949526;28;20178;-69
2024/03/25 02:54:48;;;;;;;3.17;2.67;;;;;;;5.41;68.28;95480.13;4949800;28;20262;-69
2024/03/25 02:57:14;;;;;;;2.70;2.50;;;;;;;5.40;68.39;95467.19;4950146;28;20635;-69
2024/03/25 02:59:39;;;;;;;5.37;3.17;;;;;;;5.48;68.00;95471.19;4950305;28;20194;-70
2024/03/25 03:02:04;;;;;;;3.57;2.97;;;;;;;5.50;67.73;95468.50;4949840;28;20257;-69
2024/03/25 03:04:30;;;;;;;6.47;4.83;;;;;;;5.54;68.31;95474.44;4950151;29;20170;-69
2024/03/25 03:06:56;;;;;;;3.47;3.17;;;;;;;5.49;68.31;95472.88;4950529;29;20590;-69
2024/03/25 03:09:22;;;;;;;5.00;3.07;;;;;;;5.44;68.50;95469.59;4950065;29;20198;-69
2024/03/25 03:11:47;;;;;;;5.50;3.20;;;;;;;5.58;68.21;95476.88;4949946;28;20418;-69
2024/03/25 03:14:12;;;;;;;6.37;4.30;;;;;;;5.57;68.13;95475.16;4949557;29;20182;-68
2024/03/25 03:16:38;;;;;;;6.00;3.30;;;;;;;5.48;68.18;95472.91;4949249;29;20174;-69
2024/03/25 03:19:03;;;;;;;9.43;3.63;;;;;;;5.61;67.88;95475.91;4949318;29;20209;-69
2024/03/25 03:21:30;;;;;;;5.17;3.00;;;;;;;5.56;68.30;95476.09;4949376;29;20182;-69
2024/03/25 03:23:55;;;;;;;3.60;3.30;;;;;;;5.44;68.25;95479.16;4949186;29;20534;-70
2024/03/25 03:26:21;;;;;;;3.90;2.80;;;;;;;5.50;67.80;95464.16;4947800;29;20516;-69
2024/03/25 03:28:46;;;;;;;4.57;3.90;;;;;;;5.47;68.56;95469.47;4949265;29;20193;-68
2024/03/25 03:31:11;;;;;;;4.97;3.60;;;;;;;5.53;67.78;95465.81;4949201;29;20205;-70
2024/03/25 03:33:37;;;;;;;6.60;3.90;;;;;;;5.35;68.23;95462.16;4948868;29;20189;-69
2024/03/25 03:36:02;;;;;;;6.60;3.70;;;;;;;5.33;68.12;95463.13;4949219;29;20654;-68
2024/03/25 03:38:28;;;;;;;5.37;3.73;;;;;;;5.30;68.12;95466.69;4949182;28;20214;-69
2024/03/25 03:41:11;;;;;;;4.47;3.47;;;;;;;5.27;68.63;95466.81;4948916;29;20185;-69
2024/03/25 03:43:37;;;;;;;4.40;3.17;;;;;;;5.27;68.58;95472.84;4947487;29;20181;-69
2024/03/25 03:46:03;;;;;;;6.03;4.67;;;;;;;5.20;69.48;95455.78;4948915;28;20468;-69
2024/03/25 03:48:29;;;;;;;5.17;4.67;;;;;;;5.19;68.86;95464.47;4948985;28;20206;-68
2024/03/25 03:50:55;;;;;;;4.80;4.30;;;;;;;5.29;68.77;95455.44;4948645;29;20414;-69
2024/03/25 03:53:20;;;;;;;7.23;4.90;;;;;;;5.25;68.32;95468.63;4948567;29;20461;-70
2024/03/25 03:55:55;;;;;;;5.33;4.10;;;;;;;5.34;68.14;95462.19;4948839;29;20234;-69
2024/03/25 03:58:22;;;;;;;6.27;4.80;;;;;;;5.40;67.77;95461.97;4949043;29;20748;-69
2024/03/25 04:00:47;;;;;;;5.97;5.33;;;;;;;5.32;68.41;95464.03;4948709;29;20457;-69
2024/03/25 04:03:13;;;;;;;6.27;4.90;;;;;;;5.15;68.89;95459.44;4948755;28;20417;-68
2024/03/25 04:05:38;;;;;;;5.77;5.13;;;;;;;5.27;68.37;95462.44;4949903;28;20319;-69
2024/03/25 04:08:04;;;;;;;10.50;5.83;;;;;;;5.19;68.52;95459.28;4948903;28;20193;-69
2024/03/25 04:10:29;;;;;;;8.00;6.07;;;;;;;5.17;68.61;95461.09;4948966;28;20206;-67
2024/03/25 04:12:56;;;;;;;16.60;7.53;;;;;;;5.26;68.33;95457.28;4948416;28;20528;-69
2024/03/25 04:15:22;;;;;;;11.53;7.30;;;;;;;5.05;68.87;95459.78;4953412;29;21069;-70
2024/03/25 04:17:49;;;;;;;9.23;7.80;;;;;;;5.14;68.40;95444.75;4948488;28;20424;-69
2024/03/25 04:20:15;;;;;;;9.80;8.00;;;;;;;4.98;68.92;95458.31;4948431;28;20429;-69
2024/03/25 04:22:44;;;;;;;7.50;6.30;;;;;;;4.98;68.72;95460.09;4948359;28;20432;-69
2024/03/25 04:25:19;;;;;;;11.00;8.20;;;;;;;4.98;68.61;95465.28;4950090;28;20413;-68
2024/03/25 04:27:44;;;;;;;8.10;6.60;;;;;;;4.90;68.44;95462.13;4949273;28;20414;-70
2024/03/25 04:30:14;;;;;;;9.77;7.30;;;;;;;5.01;67.90;95462.59;4950727;28;20532;-69
2024/03/25 04:32:40;;;;;;;9.57;7.27;;;;;;;4.72;69.46;95456.69;4951211;28;20392;-70
2024/03/25 04:35:07;;;;;;;8.37;7.37;;;;;;;4.73;69.49;95461.00;4951340;28;20415;-71
2024/03/25 04:37:33;;;;;;;8.70;7.83;;;;;;;4.83;69.42;95467.53;4950830;28;20416;-69
2024/03/25 04:39:58;;;;;;;11.53;8.80;;;;;;;4.81;68.73;95469.34;4950732;28;20441;-69
2024/03/25 04:42:24;;;;;;;14.30;8.10;;;;;;;5.03;67.99;95473.75;4950955;28;20414;-69
2024/03/25 04:44:50;;;;;;;10.97;9.43;;;;;;;5.08;68.17;95470.09;4952302;28;20523;-69
2024/03/25 04:47:16;;;;;;;12.20;9.90;;;;;;;4.88;68.30;95470.81;4952840;28;20233;-69
2024/03/25 04:49:41;;;;;;;12.33;9.57;;;;;;;4.74;69.37;95462.66;4952200;28;20485;-69
2024/03/25 04:52:07;;;;;;;11.77;9.23;;;;;;;4.82;69.39;95459.81;4965367;28;20162;-69
2024/03/25 04:54:32;;;;;;;11.53;9.27;;;;;;;4.79;69.63;95462.50;4960229;28;20580;-70
2024/03/25 04:56:58;;;;;;;11.83;8.37;;;;;;;4.68;69.82;95462.91;4959121;28;20209;-70
2024/03/25 04:59:23;;;;;;;8.37;6.87;;;;;;;4.88;69.06;95472.56;4953732;28;20238;-69
2024/03/25 05:01:49;;;;;;;13.10;7.93;;;;;;;4.74;69.38;95474.81;4948585;28;20186;-69
2024/03/25 05:04:14;;;;;;;11.03;6.90;;;;;;;4.74;69.51;95477.44;4947907;29;20638;-68
2024/03/25 05:06:39;;;;;;;13.80;8.20;;;;;;;4.64;69.62;95482.94;4947795;28;20260;-69
2024/03/25 05:09:07;;;;;;;10.97;6.87;;;;;;;4.75;69.32;95476.50;4947898;29;20193;-70
2024/03/25 05:11:33;;;;;;;9.20;7.73;;;;;;;4.70;69.24;95474.09;4947698;29;20189;-69
2024/03/25 05:13:59;;;;;;;12.23;7.80;;;;;;;4.75;69.47;95482.56;4947120;29;20438;-69
2024/03/25 05:16:24;;;;;;;9.00;6.80;;;;;;;4.98;68.05;95486.09;4948291;29;20166;-69
2024/03/25 05:18:50;;;;;;;11.10;8.13;;;;;;;4.73;68.97;95486.13;4948298;28;20226;-69
2024/03/25 05:21:15;;;;;;;9.60;7.27;;;;;;;4.63;69.48;95493.38;4947765;29;20225;-69
2024/03/25 05:23:41;;;;;;;8.50;7.70;;;;;;;4.64;69.49;95488.16;4947031;29;20189;-68
2024/03/25 05:26:06;;;;;;;8.90;8.00;;;;;;;4.81;68.77;95490.13;4948070;28;20210;-69
2024/03/25 05:28:31;;;;;;;9.00;5.90;;;;;;;4.82;68.95;95489.25;4947714;29;20205;-69
2024/03/25 05:31:06;;;;;;;7.80;6.30;;;;;;;4.97;68.77;95493.03;4947675;29;20216;-69
2024/03/25 05:33:31;;;;;;;8.67;5.87;;;;;;;4.76;69.29;95491.22;4947585;29;20238;-69
2024/03/25 05:35:57;;;;;;;7.87;5.50;;;;;;;4.75;69.02;95492.97;4947586;29;20409;-69
2024/03/25 05:38:22;;;;;;;9.03;5.70;;;;;;;4.75;69.19;95492.97;4947732;29;20205;-68
2024/03/25 05:40:47;;;;;;;10.13;6.80;;;;;;;4.88;68.33;95490.78;4945911;29;20182;-70
2024/03/25 05:43:13;;;;;;;8.00;5.60;;;;;;;4.81;68.92;95487.53;4947403;28;20216;-69
2024/03/25 05:45:38;;;;;;;5.30;4.47;;;;;;;4.81;68.83;95490.13;4947680;29;20229;-69
2024/03/25 05:48:04;;;;;;;10.37;4.70;;;;;;;4.96;68.45;95498.28;4947769;29;20636;-69
2024/03/25 05:50:29;;;;;;;7.90;5.17;;;;;;;4.84;68.38;95486.56;4947847;28;20221;-67
2024/03/25 05:52:55;;;;;;;5.83;4.77;;;;;;;4.99;68.63;95498.19;4939308;29;20946;-69
2024/03/25 05:55:20;;;;;;;7.50;5.43;;;;;;;4.96;68.64;95485.28;4946027;28;20236;-69
2024/03/25 05:57:45;;;;;;;7.13;5.60;;;;;;;4.97;68.24;95494.81;4946868;28;20174;-68
2024/03/25 06:00:13;;;;;;;12.83;6.13;;;;;;;4.94;68.87;95495.75;4946902;28;20198;-70
2024/03/25 06:02:38;;;;;;;10.90;5.80;;;;;;;4.95;68.77;95496.59;4945980;28;20269;-68
2024/03/25 06:05:05;;;;;;;12.00;6.23;;;;;;;5.08;68.35;95498.69;4947728;28;20505;-68
2024/03/25 06:07:30;;;;;;;11.63;6.83;;;;;;;5.04;68.64;95496.28;4947314;28;20198;-69
2024/03/25 06:09:55;;;;;;;13.83;7.23;;;;;;;5.02;68.47;95487.66;4948994;28;20449;-69
2024/03/25 06:12:21;;;;;;;11.77;6.77;;;;;;;5.29;67.08;95494.47;4950998;28;20181;-70
2024/03/25 06:14:46;;;;;;;11.53;7.10;;;;;;;5.12;67.74;95493.38;4950892;28;20174;-70
2024/03/25 06:17:11;;;;;;;9.90;7.90;;;;;;;5.32;67.13;95496.09;4951204;28;20177;-69
2024/03/25 06:19:37;;;;;;;13.40;7.97;;;;;;;5.32;66.91;95496.09;4950841;28;20268;-68
2024/03/25 06:22:02;;;;;;;13.20;7.40;;;;;;;5.49;66.62;95498.88;4948994;28;20174;-69
2024/03/25 06:24:28;;;;;;;14.67;8.80;;;;;;;5.55;66.34;95489.16;4949500;28;20182;-69
2024/03/25 06:26:53;;;;;;;11.37;8.63;;;;;;;5.60;66.15;95490.69;4951252;28;20212;-70
2024/03/25 06:29:18;;;;;;;11.50;7.00;;;;;;;5.79;64.47;95480.38;4943078;28;20218;-70
2024/03/25 06:34:28;;;;;;;10.43;7.00;;;;;;;7.80;58.01;95476.00;4951394;28;20689;-70
2024/03/25 06:36:54;;;;;;;12.73;7.87;;;;;;;7.54;58.99;95485.06;4949720;28;20438;-70
2024/03/25 06:39:19;;;;;;;12.90;7.07;;;;;;;7.11;59.31;95487.00;4946045;28;20214;-70
2024/03/25 06:41:44;;;;;;;10.67;6.33;;;;;;;6.82;61.09;95501.34;4952541;28;20655;-69
2024/03/25 06:44:10;;;;;;;6.63;5.83;;;;;;;7.06;60.95;95496.81;4949452;28;20236;-67
2024/03/25 06:46:35;;;;;;;10.00;6.37;;;;;;;7.95;57.59;95492.69;4957193;28;20285;-69
2024/03/25 06:49:00;;;;;;;6.83;5.80;;;;;;;9.48;53.16;95481.44;4949239;28;20194;-71
2024/03/25 06:51:26;;;;;;;10.60;6.87;;;;;;;10.09;51.04;95485.06;4947234;28;20936;-70
2024/03/25 06:53:52;;;;;;;9.30;6.30;;;;;;;9.01;53.16;95484.81;4950534;28;20253;-70
2024/03/25 06:56:17;;;;;;;7.00;6.13;;;;;;;8.09;56.62;95486.81;4954684;28;20206;-71
2024/03/25 06:58:43;;;;;;;7.57;6.87;;;;;;;8.11;55.94;95485.81;4947354;28;20206;-71
2024/03/25 07:01:09;;;;;;;8.77;6.90;;;;;;;8.52;55.16;95488.16;4953332;28;20173;-70
2024/03/25 07:03:35;;;;;;;7.90;7.10;;;;;;;8.01;56.27;95492.41;4962689;28;20185;-70
2024/03/25 07:06:01;;;;;;;11.87;6.90;;;;;;;7.49;58.18;95494.84;4949668;28;22051;-70
2024/03/25 07:08:28;;;;;;;11.73;7.20;;;;;;;7.80;56.63;95495.13;4948311;28;20469;-70
2024/03/25 07:10:53;;;;;;;8.60;7.70;;;;;;;8.31;55.61;95489.19;4953399;28;20444;-69
2024/03/25 07:13:19;;;;;;;8.90;7.60;;;;;;;9.04;54.12;95485.47;4958352;28;20507;-71
2024/03/25 07:15:45;;;;;;;11.40;9.87;;;;;;;9.48;52.68;95484.88;4966265;28;20185;-71
2024/03/25 07:18:12;;;;;;;9.37;8.37;;;;;;;9.94;51.25;95486.72;4948145;28;20181;-70
2024/03/25 07:20:38;;;;;;;10.73;8.80;;;;;;;9.54;51.69;95495.03;4948009;28;20206;-69
2024/03/25 07:23:04;;;;;;;13.40;10.40;;;;;;;9.81;51.92;95491.00;4947561;28;20504;-69
2024/03/25 07:25:29;;;;;;;11.27;10.07;;;;;;;10.29;50.18;95497.88;4948880;28;20472;-71
2024/03/25 07:27:55;;;;;;;16.87;10.47;;;;;;;10.64;49.10;95489.75;4948682;28;20186;-69
2024/03/25 07:30:24;;;;;;;11.60;10.30;;;;;;;10.83;48.52;95493.91;4948351;28;20435;-70
2024/03/25 07:32:50;;;;;;;13.93;9.20;;;;;;;11.19;48.01;95491.69;4956022;28;20183;-70
2024/03/25 07:35:16;;;;;;;8.93;8.03;;;;;;;11.34;46.76;95482.06;4949142;28;20414;-72
2024/03/25 07:37:45;;;;;;;9.33;8.00;;;;;;;11.59;46.72;95480.50;4955988;28;20408;-71
2024/03/25 07:40:11;;;;;;;9.47;8.20;;;;;;;11.75;45.39;95480.41;4942393;28;20574;-71
2024/03/25 07:42:37;;;;;;;10.40;9.40;;;;;;;11.91;45.74;95477.69;4934145;28;20451;-72
2024/03/25 07:45:04;;;;;;;10.80;8.20;;;;;;;12.13;45.25;95477.13;4948331;28;20433;-72
2024/03/25 07:47:30;;;;;;;10.30;9.23;;;;;;;12.24;43.98;95472.03;4949693;28;20292;-73
2024/03/25 07:49:55;;;;;;;10.90;9.37;;;;;;;12.59;43.96;95466.19;4959071;28;20475;-69
2024/03/25 07:52:21;;;;;;;9.43;8.10;;;;;;;12.44;43.08;95462.81;4967078;28;20213;-72
2024/03/25 07:54:47;;;;;;;8.30;7.60;;;;;;;12.19;43.95;95466.19;4970437;28;20545;-73
2024/03/25 07:57:12;;;;;;;12.67;9.03;;;;;;;12.38;44.46;95465.84;4954269;28;20183;-73
2024/03/25 07:59:38;;;;;;;13.60;9.23;;;;;;;12.56;42.69;95467.25;4958119;28;20473;-72
2024/03/25 08:02:03;;;;;;;9.63;8.73;;;;;;;12.80;43.12;95464.75;4956952;28;20182;-71
2024/03/25 08:04:29;;;;;;;14.13;9.10;;;;;;;12.97;42.31;95463.63;4955609;28;20208;-72
2024/03/25 08:06:54;;;;;;;10.90;8.43;;;;;;;12.80;42.38;95450.75;4958535;28;20213;-72
2024/03/25 08:09:20;;;;;;;9.60;8.20;;;;;;;13.05;42.13;95463.09;4964011;28;20923;-71
2024/03/25 08:11:45;;;;;;;9.40;7.40;;;;;;;13.32;42.36;95449.81;4964913;28;20622;-72
2024/03/25 08:14:10;;;;;;;8.43;7.60;;;;;;;13.46;41.23;95447.06;4963734;28;20616;-72
2024/03/25 08:16:36;;;;;;;13.57;8.53;;;;;;;13.98;40.84;95450.41;4939403;28;20229;-73
2024/03/25 08:19:02;;;;;;;9.70;8.30;;;;;;;13.88;41.05;95452.03;4953743;28;20221;-70
2024/03/25 08:21:27;;;;;;;8.77;7.83;;;;;;;13.73;40.73;95451.34;4946350;28;20989;-71
2024/03/25 08:23:52;;;;;;;7.53;6.83;;;;;;;13.79;40.62;95452.69;4951132;28;20350;-71
2024/03/25 08:26:18;;;;;;;7.10;6.00;;;;;;;13.98;39.82;95455.69;4952669;28;20210;-69
2024/03/25 08:28:43;;;;;;;14.00;8.27;;;;;;;12.98;41.88;95452.13;4950069;28;20238;-70
2024/03/25 08:31:09;;;;;;;10.90;8.20;;;;;;;13.70;40.79;95448.91;4959481;28;20240;-70
2024/03/25 08:33:34;;;;;;;9.93;9.03;;;;;;;11.41;45.37;95448.38;4956765;28;20182;-71
2024/03/25 08:36:00;;;;;;;10.43;9.43;;;;;;;12.40;43.89;95453.44;4951023;28;20188;-68
2024/03/25 08:38:25;;;;;;;8.40;7.03;;;;;;;13.32;41.57;95445.41;4960351;28;20574;-72
2024/03/25 08:40:51;;;;;;;16.33;6.77;;;;;;;14.01;40.01;95444.91;4968877;28;20189;-72
2024/03/25 08:43:17;;;;;;;8.73;7.07;;;;;;;13.81;39.96;95450.78;4969828;28;20181;-73
2024/03/25 08:45:44;;;;;;;8.70;6.57;;;;;;;13.66;40.11;95444.81;4969202;28;20197;-72
2024/03/25 08:48:09;;;;;;;12.33;7.30;;;;;;;13.62;39.72;95441.56;4968520;28;20230;-68
2024/03/25 08:50:34;;;;;;;17.07;7.00;;;;;;;13.06;40.64;95436.66;4960094;28;20843;-69
2024/03/25 08:53:00;;;;;;;8.93;5.60;;;;;;;13.65;39.87;95438.69;4963336;28;20236;-72
2024/03/25 08:55:27;;;;;;;9.07;5.80;;;;;;;14.10;38.71;95433.69;4952343;28;20189;-69
2024/03/25 08:57:53;;;;;;;8.40;5.30;;;;;;;14.17;38.86;95429.66;4954524;28;20240;-70
2024/03/25 09:00:18;;;;;;;6.03;4.23;;;;;;;14.15;38.06;95426.28;4952744;28;21053;-70
2024/03/25 09:02:43;;;;;;;5.90;4.57;;;;;;;14.52;37.75;95415.59;4946530;28;20752;-70
2024/03/25 09:05:10;;;;;;;7.73;4.97;;;;;;;14.75;37.31;95415.72;4945345;28;21134;-70
2024/03/25 09:07:35;;;;;;;6.03;4.60;;;;;;;14.30;37.81;95411.09;4946808;28;20647;-68
2024/03/25 09:12:45;;;;;;;8.60;5.83;;;;;;;13.72;39.66;95400.41;4950209;28;20189;-69
2024/03/25 09:15:10;;;;;;;7.97;4.93;;;;;;;14.34;38.84;95396.72;4945037;28;20902;-69
2024/03/25 09:17:36;;;;;;;6.30;4.93;;;;;;;14.38;38.31;95399.97;4953415;28;20218;-69
2024/03/25 09:20:20;;;;;;;9.50;5.13;;;;;;;14.52;37.27;95399.78;4946573;28;20198;-71
2024/03/25 09:22:48;;;;;;;6.23;4.37;;;;;;;14.16;37.86;95400.72;4954985;28;20178;-71
2024/03/25 09:25:16;;;;;;;7.37;4.30;;;;;;;14.42;37.84;95398.78;4953756;28;20598;-68
2024/03/25 09:27:49;;;;;;;13.60;5.30;;;;;;;14.78;36.98;95395.16;4943933;28;20524;-70
2024/03/25 09:30:15;;;;;;;9.43;4.77;;;;;;;14.82;36.15;95386.06;4944978;28;20465;-70
2024/03/25 09:32:42;;;;;;;7.17;4.10;;;;;;;14.97;35.57;95384.03;4942918;28;20662;-70
2024/03/25 09:35:08;;;;;;;8.73;4.53;;;;;;;15.24;35.63;95385.50;4948466;28;20430;-69
2024/03/25 09:37:33;;;;;;;5.97;3.83;;;;;;;15.03;35.38;95378.28;4949380;28;20962;-71
2024/03/25 09:39:59;;;;;;;8.53;3.87;;;;;;;15.30;35.79;95376.22;4941224;28;20457;-71
2024/03/25 09:42:48;;;;;;;5.57;4.13;;;;;;;13.73;37.30;95386.25;4942689;28;20214;-71
2024/03/25 09:45:16;;;;;;;5.70;3.70;;;;;;;14.51;35.91;95376.16;4946203;28;20285;-71
2024/03/25 09:47:46;;;;;;;9.60;4.50;;;;;;;15.07;35.66;95370.97;4950475;28;20453;-68
2024/03/25 09:50:24;;;;;;;9.50;4.40;;;;;;;15.63;34.70;95360.31;4950287;28;20450;-69
2024/03/25 09:52:49;;;;;;;6.70;3.70;;;;;;;15.31;34.10;95359.44;4940991;28;20424;-71
2024/03/25 09:55:15;;;;;;;8.73;3.63;;;;;;;15.59;34.24;95356.25;4946091;28;20498;-71
2024/03/25 09:57:42;;;;;;;7.43;4.07;;;;;;;15.74;33.89;95353.38;4944078;28;20177;-72
2024/03/25 10:00:11;;;;;;;9.93;3.90;;;;;;;16.00;33.84;95353.88;4946652;28;20282;-71
2024/03/25 10:02:41;;;;;;;5.73;3.40;;;;;;;15.39;33.50;95351.72;4947719;28;20441;-72
2024/03/25 10:05:07;;;;;;;13.40;4.43;;;;;;;15.93;33.70;95342.94;4955871;28;20463;-70
2024/03/25 10:07:34;;;;;;;15.00;4.00;;;;;;;15.88;32.73;95332.75;4945112;28;20569;-69
2024/03/25 10:10:03;;;;;;;8.33;3.40;;;;;;;15.17;31.76;95336.72;4955758;28;20776;-72
2024/03/25 10:12:28;;;;;;;23.50;5.83;;;;;;;15.24;32.67;95332.63;4936142;28;20560;-70
2024/03/25 10:14:53;;;;;;;7.37;4.77;;;;;;;15.02;33.38;95329.06;4946217;28;20966;-71
2024/03/25 10:17:19;;;;;;;12.87;4.47;;;;;;;15.57;31.87;95329.09;4954974;28;20188;-70
2024/03/25 10:19:44;;;;;;;11.43;3.50;;;;;;;15.54;30.05;95316.09;4953544;28;20199;-72
2024/03/25 10:22:10;;;;;;;16.37;4.90;;;;;;;15.35;30.32;95324.66;4939903;28;20193;-72
2024/03/25 10:24:41;;;;;;;24.73;6.00;;;;;;;15.14;30.13;95326.38;4949670;28;20584;-72
2024/03/25 10:27:16;;;;;;;17.73;6.70;;;;;;;15.71;30.72;95324.50;4949464;28;20207;-70
2024/03/25 10:29:42;;;;;;;9.30;3.40;;;;;;;15.90;28.17;95313.25;4958522;28;21222;-70
2024/03/25 10:32:08;;;;;;;8.10;3.80;;;;;;;15.98;28.58;95303.72;4959725;28;20426;-70
2024/03/25 10:34:33;;;;;;;6.30;2.83;;;;;;;16.08;27.73;95303.78;4951459;28;20225;-71
2024/03/25 10:37:02;;;;;;;9.13;3.70;;;;;;;16.25;27.77;95282.06;4959706;28;20705;-70
2024/03/25 10:39:30;;;;;;;7.77;3.10;;;;;;;15.20;28.18;95288.91;4952683;28;20280;-72
2024/03/25 10:41:57;;;;;;;4.53;2.77;;;;;;;14.34;29.05;95280.59;4945307;28;20441;-72
2024/03/25 10:44:26;;;;;;;4.23;2.70;;;;;;;13.16;32.10;95291.13;4946890;28;20539;-71
2024/03/25 10:47:05;;;;;;;6.23;3.20;;;;;;;12.81;30.85;95276.91;4949900;28;20468;-69
2024/03/25 10:49:38;;;;;;;4.87;2.37;;;;;;;13.41;30.23;95282.31;4953664;28;20965;-70
2024/03/25 10:52:05;;;;;;;18.07;3.33;;;;;;;13.70;28.40;95269.63;4949045;28;20421;-70
2024/03/25 10:54:31;;;;;;;12.43;3.40;;;;;;;13.07;28.44;95266.31;4955319;28;20418;-69
2024/03/25 10:57:03;;;;;;;5.60;1.73;;;;;;;12.08;28.97;95262.63;4945887;28;20423;-71
2024/03/25 10:59:30;;;;;;;2.80;2.37;;;;;;;12.32;26.90;95267.16;4949016;28;20449;-73
2024/03/25 11:01:56;;;;;;;4.60;2.07;;;;;;;13.04;28.98;95256.84;4972227;28;20449;-71
2024/03/25 11:04:23;;;;;;;3.40;2.23;;;;;;;12.92;28.45;95250.66;4951278;28;20451;-70
2024/03/25 11:06:48;;;;;;;3.13;1.80;;;;;;;13.52;26.52;95251.59;4956972;28;21055;-69
2024/03/25 11:09:25;;;;;;;4.03;2.17;;;;;;;13.62;28.29;95248.28;4946194;28;20466;-71
2024/03/25 11:11:54;;;;;;;4.20;2.10;;;;;;;13.88;28.64;95244.53;4948347;28;20264;-69
2024/03/25 11:14:19;;;;;;;3.07;2.40;;;;;;;13.92;28.19;95248.63;4952162;28;20449;-69
2024/03/25 11:16:55;;;;;;;7.50;2.77;;;;;;;13.87;28.45;95242.03;4944209;28;20437;-71
2024/03/25 11:19:25;;;;;;;8.20;3.10;;;;;;;14.95;51.27;95238.03;4953453;28;20562;-70
2024/03/25 11:21:51;;;;;;;8.50;3.20;;;;;;;14.60;36.14;95239.03;4956177;28;20430;-69
2024/03/25 11:24:27;;;;;;;4.80;2.47;;;;;;;14.21;36.58;95229.72;4944186;28;20488;-70
2024/03/25 11:26:53;;;;;;;23.60;3.10;;;;;;;14.15;39.64;95233.69;4951787;28;20703;-71
2024/03/25 11:29:18;;;;;;;5.27;2.37;;;;;;;15.19;46.92;95223.81;4952875;28;20460;-69
2024/03/25 11:31:45;;;;;;;2.83;1.97;;;;;;;14.81;26.60;95219.78;4949810;28;20452;-71
2024/03/25 11:34:10;;;;;;;3.37;2.13;;;;;;;14.72;26.06;95223.19;4956442;28;20270;-73
2024/03/25 11:36:35;;;;;;;3.10;1.90;;;;;;;15.18;24.79;95220.31;4951815;28;20465;-74
2024/03/25 11:39:09;;;;;;;2.77;1.90;;;;;;;15.41;24.45;95212.31;4949531;28;20297;-72